Time;durP1;ratioP1;P1;durP2;ratioP2;P2;SDS_P1;SDS_P2;PMS_P1;PMS_P2;Temp;Humidity;BMP_temperature;BMP_pressure;BME280_temperature;BME280_humidity;BME280_pressure;Samples;Min_cycle;Max_cycle;Signal;HPM_P1;HPM_P2
2023/09/09 00:01:18;;;;;;;10.65;9.00;;;19.10;99.90;;;;;;5135150;27;20054;-78
2023/09/09 00:03:43;;;;;;;9.07;8.10;;;19.10;99.90;;;;;;5112831;27;20130;-77
2023/09/09 00:06:12;;;;;;;9.63;8.13;;;19.10;99.90;;;;;;5139156;27;20046;-78
2023/09/09 00:08:39;;;;;;;9.85;8.82;;;19.10;99.90;;;;;;5125949;27;20107;-77
2023/09/09 00:11:05;;;;;;;9.02;8.13;;;19.10;99.90;;;;;;5113732;27;20054;-78
2023/09/09 00:13:30;;;;;;;10.02;9.02;;;19.00;99.90;;;;;;5139001;27;20078;-77
2023/09/09 00:15:57;;;;;;;9.73;8.77;;;19.00;99.90;;;;;;5138472;27;20172;-77
2023/09/09 00:18:23;;;;;;;9.20;8.30;;;19.00;99.90;;;;;;5138096;27;20505;-78
2023/09/09 00:20:49;;;;;;;10.82;9.70;;;19.00;99.90;;;;;;5114811;27;20184;-78
2023/09/09 00:23:14;;;;;;;11.13;9.93;;;19.00;99.90;;;;;;5136707;27;20070;-78
2023/09/09 00:25:41;;;;;;;10.80;9.35;;;18.50;99.90;;;;;;5127072;27;20562;-77
2023/09/09 00:28:09;;;;;;;10.05;9.05;;;18.90;99.90;;;;;;5136840;27;20043;-78
2023/09/09 00:30:34;;;;;;;11.38;10.00;;;19.00;99.90;;;;;;5138684;27;20039;-78
2023/09/09 00:33:00;;;;;;;10.63;8.90;;;18.90;99.90;;;;;;5137883;27;20136;-77
2023/09/09 00:35:27;;;;;;;11.95;10.55;;;18.90;99.90;;;;;;5126869;27;20051;-78
2023/09/09 00:37:53;;;;;;;9.73;8.73;;;18.80;99.90;;;;;;5138683;27;20100;-77
2023/09/09 00:40:18;;;;;;;10.73;8.68;;;18.80;99.90;;;;;;5139907;27;20095;-78
2023/09/09 00:42:44;;;;;;;12.60;10.18;;;18.80;99.90;;;;;;5137318;27;20043;-78
2023/09/09 00:45:10;;;;;;;10.50;8.20;;;18.80;99.90;;;;;;5139275;27;20043;-77
2023/09/09 00:47:37;;;;;;;9.35;8.35;;;18.70;99.90;;;;;;5136665;27;20545;-77
2023/09/09 00:50:05;;;;;;;10.10;9.10;;;18.70;99.90;;;;;;5139794;27;20046;-78
2023/09/09 00:52:31;;;;;;;8.07;7.28;;;18.70;99.90;;;;;;5136832;27;20061;-77
2023/09/09 00:54:58;;;;;;;8.80;7.90;;;18.70;99.90;;;;;;5142805;27;20098;-78
2023/09/09 00:57:26;;;;;;;8.98;8.07;;;18.70;99.90;;;;;;5140544;27;20047;-77
2023/09/09 00:59:51;;;;;;;9.45;7.78;;;18.60;99.90;;;;;;5142013;27;20134;-78
2023/09/09 01:02:17;;;;;;;10.23;8.55;;;18.60;99.90;;;;;;5140133;27;20042;-77
2023/09/09 01:04:43;;;;;;;8.73;7.82;;;18.60;99.90;;;;;;5124246;27;20046;-77
2023/09/09 01:07:09;;;;;;;8.45;7.65;;;18.50;99.90;;;;;;5134151;27;20043;-78
2023/09/09 01:09:35;;;;;;;9.80;8.80;;;18.60;99.90;;;;;;5135475;27;20788;-77
2023/09/09 01:12:00;;;;;;;9.45;8.40;;;18.60;99.90;;;;;;5123559;27;20042;-77
2023/09/09 01:14:26;;;;;;;11.43;8.25;;;18.60;99.90;;;;;;5105976;27;20054;-78
2023/09/09 01:16:56;;;;;;;10.13;9.07;;;18.50;99.90;;;;;;5123590;27;20051;-77
2023/09/09 01:19:27;;;;;;;10.20;9.20;;;18.50;99.90;;;;;;5140896;27;20046;-77
2023/09/09 01:21:54;;;;;;;7.65;6.93;;;18.50;99.90;;;;;;5124480;27;20045;-76
2023/09/09 01:24:20;;;;;;;11.18;9.38;;;18.40;99.90;;;;;;5126417;27;20035;-76
2023/09/09 01:26:46;;;;;;;9.65;8.75;;;18.40;99.90;;;;;;5134569;27;20565;-76
2023/09/09 01:29:12;;;;;;;11.43;10.20;;;18.40;99.90;;;;;;5122434;27;20039;-76
2023/09/09 01:31:38;;;;;;;10.20;9.20;;;18.40;99.90;;;;;;5106171;27;20055;-76
2023/09/09 01:34:04;;;;;;;9.55;8.13;;;18.30;99.90;;;;;;5144913;27;20051;-76
2023/09/09 01:36:30;;;;;;;12.10;10.93;;;18.40;99.90;;;;;;5124551;27;20554;-76
2023/09/09 01:38:56;;;;;;;9.10;8.18;;;18.30;99.90;;;;;;5141475;27;20084;-76
2023/09/09 01:41:22;;;;;;;9.43;8.45;;;18.30;99.90;;;;;;5138577;27;20062;-76
2023/09/09 01:43:48;;;;;;;10.57;9.57;;;18.30;99.90;;;;;;5134402;27;20047;-76
2023/09/09 01:46:14;;;;;;;11.38;10.15;;;18.30;99.90;;;;;;5140777;27;20119;-76
2023/09/09 01:48:39;;;;;;;9.50;8.60;;;18.30;99.90;;;;;;5133368;27;20198;-76
2023/09/09 01:51:06;;;;;;;9.70;8.90;;;18.30;99.90;;;;;;5124982;27;20061;-76
2023/09/09 01:53:31;;;;;;;10.82;9.82;;;18.20;99.90;;;;;;5119381;27;20047;-76
2023/09/09 01:55:58;;;;;;;9.70;8.70;;;18.20;99.90;;;;;;5134831;27;20127;-76
2023/09/09 01:58:24;;;;;;;11.63;10.52;;;18.20;99.90;;;;;;5142255;27;20138;-76
2023/09/09 02:00:50;;;;;;;9.05;8.15;;;18.10;99.90;;;;;;5120099;27;20475;-76
2023/09/09 02:03:15;;;;;;;11.32;10.13;;;18.20;99.90;;;;;;5139043;27;20047;-76
2023/09/09 02:05:41;;;;;;;11.57;10.32;;;18.10;99.90;;;;;;5122878;27;20558;-76
2023/09/09 02:08:07;;;;;;;9.13;8.23;;;18.10;99.90;;;;;;5135032;27;20054;-76
2023/09/09 02:10:32;;;;;;;9.70;8.75;;;18.10;99.90;;;;;;5138966;27;20043;-76
2023/09/09 02:12:58;;;;;;;10.27;9.27;;;18.10;99.90;;;;;;5130958;27;20054;-76
2023/09/09 02:15:24;;;;;;;10.10;9.10;;;18.00;99.90;;;;;;5131290;27;20062;-76
2023/09/09 02:17:50;;;;;;;9.93;9.05;;;18.10;99.90;;;;;;5109958;27;20459;-77
2023/09/09 02:20:16;;;;;;;10.70;9.68;;;18.10;99.90;;;;;;5123344;27;20095;-77
2023/09/09 02:22:41;;;;;;;10.57;8.48;;;18.00;99.90;;;;;;5141370;27;20506;-76
2023/09/09 02:25:08;;;;;;;11.07;9.77;;;18.00;99.90;;;;;;5128108;27;20882;-76
2023/09/09 02:27:34;;;;;;;11.75;10.55;;;18.00;99.90;;;;;;5092523;27;20554;-76
2023/09/09 02:30:01;;;;;;;12.48;11.02;;;18.00;99.90;;;;;;5139961;27;20138;-76
2023/09/09 02:32:26;;;;;;;11.43;10.38;;;17.90;99.90;;;;;;5139524;27;20051;-76
2023/09/09 02:34:52;;;;;;;12.60;11.38;;;17.90;99.90;;;;;;5141816;27;20778;-76
2023/09/09 02:37:20;;;;;;;11.80;10.60;;;17.80;99.90;;;;;;5142127;27;20105;-76
2023/09/09 02:39:50;;;;;;;11.82;10.65;;;17.90;99.90;;;;;;5143537;27;20860;-76
2023/09/09 02:42:21;;;;;;;12.05;10.48;;;17.80;99.90;;;;;;5138808;27;20629;-76
2023/09/09 02:44:51;;;;;;;13.20;11.07;;;17.70;99.90;;;;;;5131378;27;20051;-77
2023/09/09 02:47:18;;;;;;;11.95;10.32;;;17.70;99.90;;;;;;5109814;27;20057;-76
2023/09/09 02:49:44;;;;;;;13.52;12.13;;;17.80;99.90;;;;;;5124445;27;20083;-78
2023/09/09 02:52:10;;;;;;;14.60;12.57;;;17.80;99.90;;;;;;5111602;27;20172;-77
2023/09/09 02:54:37;;;;;;;20.98;14.30;;;17.70;99.90;;;;;;5135115;27;20896;-76
2023/09/09 02:57:03;;;;;;;19.40;16.33;;;17.70;99.90;;;;;;5128589;27;20094;-76
2023/09/09 02:59:32;;;;;;;20.38;14.60;;;17.70;99.90;;;;;;5131552;27;20056;-76
2023/09/09 03:01:59;;;;;;;15.55;13.82;;;17.70;99.90;;;;;;5131636;27;20052;-76
2023/09/09 03:04:25;;;;;;;16.08;14.38;;;17.70;99.90;;;;;;5134694;27;20054;-77
2023/09/09 03:06:50;;;;;;;19.83;14.35;;;17.70;99.90;;;;;;5141676;27;20050;-76
2023/09/09 03:09:16;;;;;;;13.45;11.98;;;17.70;99.90;;;;;;5139582;27;20104;-76
2023/09/09 03:11:42;;;;;;;15.90;14.18;;;17.70;99.90;;;;;;5142739;27;20061;-76
2023/09/09 03:14:11;;;;;;;20.88;14.80;;;17.70;99.90;;;;;;5138478;27;20034;-76
2023/09/09 03:16:38;;;;;;;15.93;13.13;;;17.70;99.90;;;;;;5142395;27;20113;-76
2023/09/09 03:19:03;;;;;;;16.23;14.65;;;17.70;99.90;;;;;;5128846;27;20057;-76
2023/09/09 03:21:29;;;;;;;18.48;15.15;;;17.70;99.90;;;;;;5143027;27;20042;-76
2023/09/09 03:23:55;;;;;;;16.08;14.25;;;17.60;99.90;;;;;;5126546;27;20122;-76
2023/09/09 03:26:22;;;;;;;15.43;13.32;;;17.60;99.90;;;;;;5130253;27;20053;-76
2023/09/09 03:28:51;;;;;;;14.18;12.32;;;17.70;99.90;;;;;;5128048;27;20074;-76
2023/09/09 03:31:17;;;;;;;15.40;13.80;;;17.70;99.90;;;;;;5112396;27;20062;-76
2023/09/09 03:33:43;;;;;;;21.55;18.67;;;17.70;99.90;;;;;;5133489;27;20059;-76
2023/09/09 03:36:08;;;;;;;19.38;17.05;;;17.70;99.90;;;;;;5141697;27;20047;-76
2023/09/09 03:38:35;;;;;;;18.65;16.33;;;17.60;99.90;;;;;;5140197;27;20046;-77
2023/09/09 03:41:05;;;;;;;19.90;15.15;;;17.60;99.90;;;;;;5132654;27;20058;-76
2023/09/09 03:43:30;;;;;;;14.15;11.90;;;17.60;99.90;;;;;;5119759;27;20133;-76
2023/09/09 03:45:56;;;;;;;16.00;14.18;;;17.60;99.90;;;;;;5118980;27;20158;-76
2023/09/09 03:48:24;;;;;;;15.15;13.50;;;17.60;99.90;;;;;;5136082;27;20092;-76
2023/09/09 03:50:50;;;;;;;13.38;12.02;;;17.60;99.90;;;;;;5097762;27;20082;-76
2023/09/09 03:53:16;;;;;;;12.55;11.02;;;17.60;99.90;;;;;;5134352;27;20145;-76
2023/09/09 03:55:41;;;;;;;15.07;12.52;;;17.50;99.90;;;;;;5121865;27;20054;-76
2023/09/09 03:58:07;;;;;;;19.30;14.73;;;17.50;99.90;;;;;;5125072;27;20168;-76
2023/09/09 04:00:33;;;;;;;15.30;13.65;;;17.50;99.90;;;;;;5142107;27;20170;-76
2023/09/09 04:02:59;;;;;;;14.52;12.48;;;17.50;99.90;;;;;;5106906;27;20062;-77
2023/09/09 04:05:25;;;;;;;15.15;12.90;;;17.50;99.90;;;;;;5119092;27;20117;-76
2023/09/09 04:07:51;;;;;;;19.73;14.02;;;17.50;99.90;;;;;;5111886;27;20050;-76
2023/09/09 04:10:17;;;;;;;15.45;13.48;;;17.50;99.90;;;;;;5127088;27;20119;-76
2023/09/09 04:12:42;;;;;;;14.40;11.88;;;17.40;99.90;;;;;;5142026;27;20046;-76
2023/09/09 04:15:10;;;;;;;12.65;11.35;;;17.40;99.90;;;;;;5131834;27;20192;-76
2023/09/09 04:17:36;;;;;;;14.20;12.70;;;17.40;99.90;;;;;;5135840;27;20450;-76
2023/09/09 04:20:03;;;;;;;15.80;13.70;;;17.40;99.90;;;;;;5141105;27;20121;-76
2023/09/09 04:22:29;;;;;;;14.57;12.93;;;17.30;99.90;;;;;;5140576;27;20615;-76
2023/09/09 04:24:55;;;;;;;14.52;12.15;;;17.30;99.90;;;;;;5122735;27;20050;-76
2023/09/09 04:27:21;;;;;;;13.73;11.57;;;17.20;99.90;;;;;;5120438;27;20557;-76
2023/09/09 04:29:47;;;;;;;15.10;12.85;;;17.20;99.90;;;;;;5123266;27;20047;-76
2023/09/09 04:32:13;;;;;;;13.30;11.90;;;17.20;99.90;;;;;;5140864;27;20054;-76
2023/09/09 04:34:39;;;;;;;12.43;11.23;;;17.20;99.90;;;;;;5136149;27;20050;-77
2023/09/09 04:37:05;;;;;;;13.57;12.07;;;17.20;99.90;;;;;;5144273;27;20611;-76
2023/09/09 04:39:30;;;;;;;19.98;15.82;;;17.20;99.90;;;;;;5144713;27;20119;-76
2023/09/09 04:41:56;;;;;;;19.52;17.17;;;17.20;99.90;;;;;;5128471;27;20046;-76
2023/09/09 04:44:22;;;;;;;16.52;13.95;;;17.20;99.90;;;;;;5141832;27;20051;-76
2023/09/09 04:46:48;;;;;;;17.20;14.48;;;17.20;99.90;;;;;;5139443;27;20043;-76
2023/09/09 04:49:16;;;;;;;13.20;11.05;;;17.20;99.90;;;;;;5144155;27;20075;-76
2023/09/09 04:51:43;;;;;;;22.08;19.13;;;17.20;99.90;;;;;;5143613;27;20062;-76
2023/09/09 04:54:09;;;;;;;17.95;16.02;;;17.20;99.90;;;;;;5144655;27;20780;-76
2023/09/09 04:56:34;;;;;;;18.92;16.65;;;17.20;99.90;;;;;;5142271;27;20099;-76
2023/09/09 04:59:00;;;;;;;18.15;15.60;;;17.20;99.90;;;;;;5133282;27;20055;-76
2023/09/09 05:01:26;;;;;;;22.40;20.00;;;17.20;99.90;;;;;;5140191;27;20054;-76
2023/09/09 05:03:52;;;;;;;20.17;17.67;;;17.20;99.90;;;;;;5134689;27;20045;-76
2023/09/09 05:06:17;;;;;;;17.02;15.18;;;17.20;99.90;;;;;;5106192;27;20828;-76
2023/09/09 05:08:43;;;;;;;19.27;17.05;;;17.20;99.90;;;;;;5138013;27;20098;-76
2023/09/09 05:11:10;;;;;;;20.52;17.48;;;17.20;99.90;;;;;;5145476;27;20498;-76
2023/09/09 05:13:35;;;;;;;20.83;17.50;;;17.20;99.90;;;;;;5140188;27;20107;-76
2023/09/09 05:16:01;;;;;;;17.73;15.60;;;17.20;99.90;;;;;;5127821;27;20530;-76
2023/09/09 05:18:27;;;;;;;15.93;14.02;;;17.10;99.90;;;;;;5133789;27;20077;-76
2023/09/09 05:20:52;;;;;;;15.73;13.55;;;17.20;99.90;;;;;;5119223;27;20039;-76
2023/09/09 05:23:18;;;;;;;15.82;14.23;;;17.20;99.90;;;;;;5131655;27;20039;-76
2023/09/09 05:25:44;;;;;;;19.10;13.93;;;17.20;99.90;;;;;;5139675;27;20053;-76
2023/09/09 05:28:09;;;;;;;13.25;11.93;;;17.20;99.90;;;;;;5100072;27;20057;-76
2023/09/09 05:30:40;;;;;;;18.85;16.92;;;17.20;99.90;;;;;;5119140;27;20047;-76
2023/09/09 05:33:06;;;;;;;13.23;11.82;;;17.10;99.90;;;;;;5114421;27;20071;-76
2023/09/09 05:35:32;;;;;;;14.52;11.60;;;17.10;99.90;;;;;;5139444;27;20049;-76
2023/09/09 05:37:57;;;;;;;16.30;13.98;;;17.10;99.90;;;;;;5143322;27;20046;-76
2023/09/09 05:40:23;;;;;;;20.00;15.77;;;17.20;99.90;;;;;;5127439;27;20625;-76
2023/09/09 05:42:48;;;;;;;18.23;14.75;;;17.20;99.90;;;;;;5132716;27;20039;-76
2023/09/09 05:45:14;;;;;;;14.20;11.68;;;17.20;99.90;;;;;;5117133;27;20062;-76
2023/09/09 05:47:42;;;;;;;13.80;11.27;;;17.20;99.90;;;;;;5133296;27;20051;-76
2023/09/09 05:50:08;;;;;;;13.93;12.48;;;17.30;99.90;;;;;;5138983;27;20062;-76
2023/09/09 05:52:34;;;;;;;15.23;12.50;;;17.40;99.90;;;;;;5132924;27;20217;-76
2023/09/09 05:54:59;;;;;;;16.80;15.10;;;17.50;99.90;;;;;;5141381;27;20562;-76
2023/09/09 05:57:25;;;;;;;17.33;15.63;;;17.50;99.90;;;;;;5142372;27;20046;-77
2023/09/09 05:59:51;;;;;;;19.35;17.27;;;17.60;99.90;;;;;;5106273;27;20769;-76
2023/09/09 06:02:17;;;;;;;19.88;17.67;;;17.60;99.90;;;;;;5135856;27;20061;-76
2023/09/09 06:04:42;;;;;;;19.35;16.27;;;17.70;99.90;;;;;;5122031;27;20042;-77
2023/09/09 06:07:08;;;;;;;21.45;18.13;;;17.70;99.90;;;;;;5121590;27;20047;-76
2023/09/09 06:09:34;;;;;;;18.65;16.65;;;17.80;99.90;;;;;;5142088;27;20134;-77
2023/09/09 06:12:01;;;;;;;17.38;14.98;;;17.80;99.90;;;;;;5140719;27;20050;-77
2023/09/09 06:14:27;;;;;;;22.73;19.85;;;17.90;99.90;;;;;;5122811;27;20042;-76
2023/09/09 06:16:52;;;;;;;22.42;19.45;;;18.00;99.90;;;;;;5135259;27;20092;-77
2023/09/09 06:19:18;;;;;;;24.77;19.02;;;18.10;99.90;;;;;;5128341;27;20051;-74
2023/09/09 06:21:44;;;;;;;22.55;18.20;;;18.10;99.90;;;;;;5119856;27;20054;-74
2023/09/09 06:24:12;;;;;;;22.15;18.30;;;18.20;99.90;;;;;;5115248;27;20379;-75
2023/09/09 06:26:38;;;;;;;26.23;19.83;;;18.30;99.90;;;;;;5135727;27;20085;-74
2023/09/09 06:29:04;;;;;;;29.40;20.15;;;18.40;99.90;;;;;;5103908;27;20458;-74
2023/09/09 06:31:30;;;;;;;25.75;19.20;;;18.50;99.90;;;;;;5136082;27;20057;-75
2023/09/09 06:33:56;;;;;;;22.50;17.52;;;18.60;99.90;;;;;;5114340;27;20058;-75
2023/09/09 06:36:22;;;;;;;19.75;17.60;;;18.70;99.90;;;;;;5141278;27;20041;-75
2023/09/09 06:38:49;;;;;;;19.40;17.15;;;18.80;99.90;;;;;;5140632;27;20065;-75
2023/09/09 06:41:15;;;;;;;21.63;18.33;;;18.90;99.90;;;;;;5118768;27;20098;-75
2023/09/09 06:43:41;;;;;;;20.88;17.90;;;19.00;99.90;;;;;;5124820;27;20053;-74
2023/09/09 06:46:07;;;;;;;20.50;18.30;;;19.20;99.90;;;;;;5138877;27;20050;-75
2023/09/09 06:48:32;;;;;;;24.13;19.65;;;19.30;99.90;;;;;;5137115;27;20047;-75
2023/09/09 06:50:58;;;;;;;24.70;19.42;;;19.50;99.90;;;;;;5139069;27;20090;-75
2023/09/09 06:53:24;;;;;;;23.60;18.55;;;19.60;99.90;;;;;;5098439;27;20047;-75
2023/09/09 06:55:50;;;;;;;23.15;19.25;;;19.70;99.90;;;;;;5140758;27;20051;-75
2023/09/09 06:58:16;;;;;;;21.42;19.17;;;20.70;99.90;;;;;;5133303;27;20055;-75
2023/09/09 07:00:48;;;;;;;20.50;18.20;;;20.00;99.90;;;;;;5141252;27;20038;-75
2023/09/09 07:03:14;;;;;;;23.38;18.58;;;20.10;99.90;;;;;;5118127;27;20383;-75
2023/09/09 07:05:39;;;;;;;21.70;19.35;;;20.30;99.90;;;;;;5130768;27;20050;-75
2023/09/09 07:08:05;;;;;;;23.88;19.27;;;20.40;99.90;;;;;;5135019;27;20103;-75
2023/09/09 07:10:31;;;;;;;20.77;16.45;;;20.60;99.90;;;;;;5140263;27;20821;-75
2023/09/09 07:12:56;;;;;;;19.73;17.30;;;20.80;99.90;;;;;;5099882;27;20116;-76
2023/09/09 07:15:22;;;;;;;19.30;17.23;;;20.90;99.90;;;;;;5119587;27;20043;-76
2023/09/09 07:17:48;;;;;;;21.23;17.92;;;21.00;99.90;;;;;;5120194;27;20053;-75
2023/09/09 07:20:14;;;;;;;19.13;16.77;;;21.20;99.90;;;;;;5122549;27;20046;-76
2023/09/09 07:22:40;;;;;;;19.42;16.80;;;21.40;99.90;;;;;;5139449;27;20572;-74
2023/09/09 07:25:06;;;;;;;17.15;15.15;;;21.70;99.90;;;;;;5137442;27;20054;-74
2023/09/09 07:27:32;;;;;;;18.67;15.35;;;22.60;99.90;;;;;;5140200;27;20089;-74
2023/09/09 07:29:58;;;;;;;21.35;16.00;;;24.20;99.90;;;;;;5122933;27;20049;-74
2023/09/09 07:32:25;;;;;;;18.52;15.75;;;25.60;99.90;;;;;;5122608;27;20154;-75
2023/09/09 07:34:50;;;;;;;16.13;14.40;;;26.70;99.90;;;;;;5122476;27;20598;-75
2023/09/09 07:37:17;;;;;;;14.60;13.07;;;27.70;99.90;;;;;;5135395;27;20039;-75
2023/09/09 07:39:50;;;;;;;16.17;13.70;;;28.80;99.90;;;;;;5112688;27;20502;-75
2023/09/09 07:42:16;;;;;;;20.73;14.50;;;;;;;;;;5138901;27;20111;-75
2023/09/09 07:44:43;;;;;;;19.42;14.82;;;30.10;99.90;;;;;;5142422;27;20050;-75
2023/09/09 07:47:09;;;;;;;19.85;16.13;;;30.70;99.90;;;;;;5141518;27;20068;-76
2023/09/09 07:49:35;;;;;;;19.05;13.52;;;31.00;99.90;;;;;;5135097;27;20376;-75
2023/09/09 07:52:02;;;;;;;21.27;15.45;;;31.60;99.40;;;;;;5140745;27;20043;-76
2023/09/09 07:54:28;;;;;;;16.08;14.35;;;31.90;98.70;;;;;;5121505;27;20053;-76
2023/09/09 07:56:54;;;;;;;18.88;15.85;;;32.30;97.90;;;;;;5141519;27;20090;-75
2023/09/09 07:59:20;;;;;;;18.05;15.45;;;32.50;97.20;;;;;;5116560;27;20122;-76
2023/09/09 08:01:47;;;;;;;19.95;17.55;;;32.90;96.70;;;;;;5111438;27;20088;-76
2023/09/09 08:04:12;;;;;;;21.30;16.00;;;33.00;96.10;;;;;;5125178;27;20047;-76
2023/09/09 08:06:38;;;;;;;18.67;16.67;;;33.40;95.60;;;;;;5141581;27;20054;-76
2023/09/09 08:09:04;;;;;;;18.63;16.38;;;33.70;95.10;;;;;;5133259;27;20062;-75
2023/09/09 08:11:29;;;;;;;18.85;16.33;;;33.80;94.50;;;;;;5135255;27;20123;-75
2023/09/09 08:13:55;;;;;;;19.58;16.95;;;34.00;94.30;;;;;;5139170;27;20499;-75
2023/09/09 08:16:21;;;;;;;18.70;16.73;;;34.30;93.90;;;;;;5137784;27;20050;-75
2023/09/09 08:18:46;;;;;;;19.13;16.58;;;34.40;93.70;;;;;;5120420;27;20683;-76
2023/09/09 08:21:13;;;;;;;20.52;17.25;;;34.60;93.40;;;;;;5137631;27;20043;-76
2023/09/09 08:23:39;;;;;;;18.50;16.65;;;34.70;93.20;;;;;;5139172;27;20078;-76
2023/09/09 08:26:05;;;;;;;18.02;16.13;;;34.90;92.90;;;;;;5117561;27;20491;-76
2023/09/09 08:28:30;;;;;;;20.83;17.25;;;35.20;92.70;;;;;;5135680;27;20053;-76
2023/09/09 08:31:00;;;;;;;19.58;17.50;;;35.40;92.40;;;;;;5137374;27;20115;-76
2023/09/09 08:33:26;;;;;;;18.25;16.38;;;35.50;92.00;;;;;;5127825;27;20059;-76
2023/09/09 08:36:02;;;;;;;20.52;16.45;;;35.80;91.90;;;;;;5128942;27;20809;-76
2023/09/09 08:38:28;;;;;;;19.67;16.83;;;35.90;91.10;;;;;;5136301;27;20222;-77
2023/09/09 08:41:13;;;;;;;19.77;17.67;;;36.20;91.50;;;;;;5139624;27;20043;-71
2023/09/09 08:43:48;;;;;;;20.85;18.65;;;36.00;91.20;;;;;;5136431;27;20793;-72
2023/09/09 08:46:19;;;;;;;22.10;19.83;;;35.90;90.60;;;;;;5137099;27;20572;-72
2023/09/09 08:48:48;;;;;;;21.27;19.05;;;35.90;90.90;;;;;;5140710;27;20115;-73
2023/09/09 08:51:16;;;;;;;21.60;18.10;;;36.40;91.00;;;;;;5137817;27;20090;-74
2023/09/09 08:53:44;;;;;;;26.70;20.38;;;36.80;90.40;;;;;;5132570;27;20574;-74
2023/09/09 08:56:12;;;;;;;21.05;18.92;;;36.40;90.40;;;;;;5104836;27;20220;-74
2023/09/09 08:58:40;;;;;;;20.23;18.00;;;36.50;90.40;;;;;;5115954;27;20057;-74
2023/09/09 09:01:06;;;;;;;24.30;21.17;;;36.40;90.60;;;;;;5128485;27;20047;-75
2023/09/09 09:03:33;;;;;;;22.52;20.20;;;36.30;90.30;;;;;;5121245;27;20051;-74
2023/09/09 09:06:03;;;;;;;20.25;18.25;;;36.30;90.30;;;;;;5135853;27;20046;-74
2023/09/09 09:08:29;;;;;;;20.85;18.80;;;36.50;89.10;;;;;;5126616;27;20150;-74
2023/09/09 09:10:57;;;;;;;22.38;19.83;;;36.30;90.10;;;;;;5110267;27;20039;-74
2023/09/09 09:13:22;;;;;;;24.33;18.98;;;36.30;90.20;;;;;;5138398;27;20483;-74
2023/09/09 09:15:48;;;;;;;21.65;19.38;;;35.90;90.20;;;;;;5140022;27;20042;-74
2023/09/09 09:18:14;;;;;;;23.75;20.90;;;36.00;90.40;;;;;;5125813;27;20059;-75
2023/09/09 09:20:40;;;;;;;21.08;18.98;;;36.00;90.30;;;;;;5117368;27;20043;-74
2023/09/09 09:23:11;;;;;;;23.38;20.98;;;36.20;90.20;;;;;;5140925;27;20061;-75
2023/09/09 09:25:40;;;;;;;22.73;19.25;;;36.40;90.20;;;;;;5142645;27;20075;-74
2023/09/09 09:28:06;;;;;;;21.52;19.33;;;36.50;90.10;;;;;;5144964;27;20066;-77
2023/09/09 09:30:33;;;;;;;21.70;19.50;;;36.80;89.90;;;;;;5103754;27;20039;-75
2023/09/09 09:32:59;;;;;;;19.33;17.33;;;36.40;89.40;;;;;;5136911;27;20050;-76
2023/09/09 09:35:30;;;;;;;25.30;20.88;;;36.70;89.60;;;;;;5137844;27;20093;-76
2023/09/09 09:38:00;;;;;;;28.45;21.35;;;36.40;87.70;;;;;;5135357;27;20051;-77
2023/09/09 09:40:27;;;;;;;22.45;19.50;;;36.30;88.00;;;;;;5107711;27;20054;-76
2023/09/09 09:42:53;;;;;;;23.23;19.77;;;36.20;89.40;;;;;;5144103;27;21008;-77
2023/09/09 09:45:27;;;;;;;21.27;18.75;;;35.90;89.50;;;;;;5142506;27;20042;-77
2023/09/09 09:47:53;;;;;;;22.05;18.08;;;35.90;89.90;;;;;;5144244;27;20047;-76
2023/09/09 09:50:25;;;;;;;21.63;19.42;;;35.80;89.60;;;;;;5135886;27;20118;-77
2023/09/09 09:52:59;;;;;;;20.27;18.00;;;35.90;89.60;;;;;;5136962;27;20054;-77
2023/09/09 09:55:26;;;;;;;19.08;17.15;;;35.90;89.10;;;;;;5143931;27;20418;-77
2023/09/09 09:57:57;;;;;;;20.13;16.45;;;35.70;88.90;;;;;;5140740;27;20115;-77
2023/09/09 10:00:24;;;;;;;18.50;16.60;;;35.80;88.90;;;;;;5123484;27;20039;-77
2023/09/09 10:02:55;;;;;;;18.70;15.25;;;35.60;89.80;;;;;;5125948;27;20047;-77
2023/09/09 10:05:25;;;;;;;20.27;16.13;;;35.70;88.60;;;;;;5087812;27;20089;-77
2023/09/09 10:07:53;;;;;;;17.85;14.90;;;35.90;89.50;;;;;;5113387;27;20352;-77
2023/09/09 10:10:23;;;;;;;17.50;15.70;;;36.30;89.40;;;;;;5104537;27;20064;-77
2023/09/09 10:12:52;;;;;;;16.90;15.13;;;36.30;88.00;;;;;;5098515;27;20229;-77
2023/09/09 10:15:20;;;;;;;18.58;15.27;;;36.50;88.40;;;;;;5136905;27;20047;-77
2023/09/09 10:17:46;;;;;;;18.10;14.07;;;36.60;88.50;;;;;;5140401;27;20057;-76
2023/09/09 10:20:13;;;;;;;17.08;12.93;;;36.80;88.30;;;;;;5136582;27;20038;-76
2023/09/09 10:22:43;;;;;;;14.02;12.57;;;36.80;88.20;;;;;;5137519;27;20043;-76
2023/09/09 10:25:10;;;;;;;17.63;15.23;;;37.00;87.50;;;;;;5134047;27;20391;-76
2023/09/09 10:27:38;;;;;;;18.88;15.77;;;36.80;87.50;;;;;;5135714;27;20042;-76
2023/09/09 10:30:04;;;;;;;16.45;13.98;;;36.90;87.80;;;;;;5136411;27;20051;-76
2023/09/09 10:32:34;;;;;;;21.33;16.50;;;37.30;87.60;;;;;;5115903;27;20055;-76
2023/09/09 10:35:01;;;;;;;17.05;15.35;;;37.70;87.30;;;;;;5141920;27;20121;-76
2023/09/09 10:37:27;;;;;;;16.55;14.68;;;37.70;87.30;;;;;;5123520;27;20653;-76
2023/09/09 10:39:54;;;;;;;19.48;15.40;;;37.90;87.00;;;;;;5142602;27;20047;-76
2023/09/09 10:42:19;;;;;;;15.68;14.02;;;37.50;86.60;;;;;;5142336;27;20054;-76
2023/09/09 10:44:48;;;;;;;20.10;14.57;;;37.00;86.60;;;;;;5141881;27;20054;-77
2023/09/09 10:47:19;;;;;;;16.60;14.77;;;36.30;86.60;;;;;;5130280;27;20047;-76
2023/09/09 10:49:45;;;;;;;20.08;15.23;;;35.70;88.40;;;;;;5141040;27;20100;-76
2023/09/09 10:52:34;;;;;;;16.83;15.20;;;34.40;89.30;;;;;;5103340;27;20566;-76
2023/09/09 10:55:13;;;;;;;17.75;14.77;;;33.30;89.80;;;;;;5119778;27;20055;-75
2023/09/09 10:57:39;;;;;;;15.80;13.98;;;32.40;91.20;;;;;;5112884;27;20059;-76
2023/09/09 11:00:06;;;;;;;17.38;15.57;;;31.90;91.60;;;;;;5140049;27;20042;-76
2023/09/09 11:02:44;;;;;;;15.10;13.57;;;31.60;91.80;;;;;;5121878;27;20710;-76
2023/09/09 11:05:13;;;;;;;16.75;13.95;;;31.30;92.30;;;;;;5102501;27;20109;-76
2023/09/09 11:07:43;;;;;;;14.73;12.73;;;31.10;92.30;;;;;;5113372;27;20585;-75
2023/09/09 11:10:14;;;;;;;16.52;13.43;;;30.90;92.60;;;;;;5133636;27;20042;-75
2023/09/09 11:12:56;;;;;;;16.95;13.00;;;30.70;92.70;;;;;;5141597;27;20039;-74
2023/09/09 11:15:25;;;;;;;15.00;13.40;;;30.20;93.40;;;;;;5112354;27;20070;-74
2023/09/09 11:17:51;;;;;;;14.45;13.07;;;30.30;93.40;;;;;;5126246;27;20095;-74
2023/09/09 11:20:20;;;;;;;16.48;13.57;;;30.30;93.60;;;;;;5123810;27;20511;-74
2023/09/09 11:22:46;;;;;;;14.88;12.95;;;30.30;93.70;;;;;;5140092;27;20053;-76
2023/09/09 11:25:14;;;;;;;18.17;15.07;;;30.20;93.70;;;;;;5140357;27;20137;-75
2023/09/09 11:27:40;;;;;;;16.55;14.77;;;30.00;93.60;;;;;;5111842;27;20047;-75
2023/09/09 11:30:06;;;;;;;14.40;13.00;;;30.10;93.70;;;;;;5134261;27;20495;-75
2023/09/09 11:32:32;;;;;;;17.33;15.50;;;30.00;94.10;;;;;;5115783;27;20081;-74
2023/09/09 11:34:58;;;;;;;14.23;12.90;;;29.90;94.10;;;;;;5138679;27;20527;-75
2023/09/09 11:37:25;;;;;;;14.85;13.27;;;29.60;94.50;;;;;;5100772;27;20485;-76
2023/09/09 11:39:52;;;;;;;16.90;13.52;;;29.60;94.70;;;;;;5116350;27;20043;-75
2023/09/09 11:42:18;;;;;;;18.35;14.63;;;29.50;94.80;;;;;;5136496;27;20047;-76
2023/09/09 11:44:46;;;;;;;17.80;14.75;;;29.50;94.70;;;;;;5131519;27;20039;-75
2023/09/09 11:47:14;;;;;;;17.52;15.10;;;29.60;95.00;;;;;;5126668;27;20057;-76
2023/09/09 11:49:43;;;;;;;16.17;14.57;;;29.60;95.20;;;;;;5108358;27;20046;-76
2023/09/09 11:52:09;;;;;;;17.13;15.10;;;29.50;95.50;;;;;;5131542;27;20050;-75
2023/09/09 11:54:35;;;;;;;18.55;16.23;;;29.60;95.40;;;;;;5132902;27;20046;-76
2023/09/09 11:57:09;;;;;;;19.42;17.27;;;29.70;95.50;;;;;;5120497;27;20042;-75
2023/09/09 11:59:48;;;;;;;20.85;18.70;;;29.70;95.90;;;;;;5138019;27;20047;-76
2023/09/09 12:02:18;;;;;;;21.25;17.83;;;29.60;95.80;;;;;;5139395;27;20538;-75
2023/09/09 12:04:56;;;;;;;19.88;16.55;;;29.80;95.70;;;;;;5119277;27;20499;-75
2023/09/09 12:07:28;;;;;;;22.15;17.85;;;29.70;95.70;;;;;;5106009;27;20046;-75
2023/09/09 12:09:55;;;;;;;18.63;16.65;;;29.70;95.60;;;;;;5138294;27;20039;-75
2023/09/09 12:12:22;;;;;;;19.85;17.63;;;29.60;95.90;;;;;;5136786;27;20038;-75
2023/09/09 12:14:49;;;;;;;22.58;18.10;;;29.60;96.00;;;;;;5119077;27;20047;-76
2023/09/09 12:17:14;;;;;;;20.15;17.65;;;29.50;95.80;;;;;;5125376;27;20086;-76
2023/09/09 12:19:40;;;;;;;21.38;17.15;;;29.40;96.00;;;;;;5125377;27;20117;-75
2023/09/09 12:22:06;;;;;;;20.30;15.93;;;29.40;96.30;;;;;;5127844;27;20082;-76
2023/09/09 12:24:41;;;;;;;18.10;15.52;;;29.40;96.40;;;;;;5118386;27;20121;-75
2023/09/09 12:27:07;;;;;;;18.35;16.48;;;29.50;96.00;;;;;;5129401;27;20476;-77
2023/09/09 12:29:43;;;;;;;17.67;15.88;;;29.40;96.00;;;;;;5115651;27;20053;-77